Time;durP1;ratioP1;P1;durP2;ratioP2;P2;SDS_P1;SDS_P2;PMS_P1;PMS_P2;Temp;Humidity;BMP_temperature;BMP_pressure;BME280_temperature;BME280_humidity;BME280_pressure;Samples;Min_cycle;Max_cycle;Signal;HPM_P1;HPM_P2
2021/04/26 00:02:21;;;;;;;;;52.00;45.50;;;;;8.58;59.20;101433.13;4862153;29;11752;-74
2021/04/26 00:05:18;;;;;;;;;62.25;49.50;;;;;8.54;59.31;101432.09;4884424;29;11696;-74
2021/04/26 00:08:00;;;;;;;;;66.50;53.75;;;;;8.58;59.15;101433.13;4872735;29;11756;-73
2021/04/26 00:10:56;;;;;;;;;77.00;59.00;;;;;8.37;59.57;101435.41;4889094;29;11687;-74
2021/04/26 00:13:52;;;;;;;;;76.75;60.50;;;;;8.38;60.01;101428.75;4897092;29;12366;-74
2021/04/26 00:16:47;;;;;;;;;79.33;63.00;;;;;8.41;59.62;101438.38;4884424;29;11757;-74
2021/04/26 00:19:43;;;;;;;;;94.00;73.67;;;;;8.31;60.17;101437.38;4884534;29;11747;-73
2021/04/26 00:22:39;;;;;;;;;89.00;76.33;;;;;8.33;60.00;101431.56;4869683;29;8855;-73
2021/04/26 00:25:36;;;;;;;;;90.00;68.33;;;;;8.43;60.13;101430.59;4869900;29;8855;-73
2021/04/26 00:28:31;;;;;;;;;95.67;73.33;;;;;8.24;61.34;101427.81;4883508;29;8867;-74
2021/04/26 00:31:27;;;;;;;;;90.00;70.33;;;;;8.29;61.10;101430.53;4883997;29;8898;-73
2021/04/26 00:33:59;;;;;;;;;95.00;81.33;;;;;8.27;60.87;101436.31;4879909;29;8867;-74
2021/04/26 00:36:55;;;;;;;;;88.00;67.00;;;;;7.93;63.44;101433.75;4895344;29;8826;-74
2021/04/26 00:39:51;;;;;;;;;91.67;72.67;;;;;7.88;63.39;101428.28;4868856;29;8907;-74
2021/04/26 00:42:47;;;;;;;;;86.00;67.67;;;;;7.97;63.60;101429.28;4880525;29;8874;-73
2021/04/26 00:45:42;;;;;;;;;93.67;70.00;;;;;7.86;64.09;101422.28;4875169;29;8878;-74
2021/04/26 00:48:17;;;;;;;;;94.33;73.67;;;;;7.90;63.47;101416.97;4879509;29;8874;-73
2021/04/26 00:51:13;;;;;;;;;88.00;67.00;;;;;7.90;63.83;101420.56;4874366;29;8856;-73
2021/04/26 00:54:09;;;;;;;;;90.67;70.33;;;;;7.86;64.14;101410.44;4877483;29;9590;-74
2021/04/26 00:57:05;;;;;;;;;92.33;72.00;;;;;7.96;64.04;101407.53;4878020;29;8922;-74
2021/04/26 01:00:01;;;;;;;;;126.67;102.33;;;;;7.81;64.03;101405.78;4877851;29;8915;-73
2021/04/26 01:02:57;;;;;;;;;125.25;112.75;;;;;8.01;62.84;101397.28;4878264;29;8851;-73
2021/04/26 01:05:53;;;;;;;;;165.00;131.25;;;;;7.92;62.91;101401.00;4871325;29;8938;-74
2021/04/26 01:08:48;;;;;;;;;159.75;120.25;;;;;7.73;63.81;101395.44;4867579;29;8882;-74
2021/04/26 01:11:53;;;;;;;;;158.25;132.50;;;;;7.95;63.06;101394.88;4877907;29;8870;-73
2021/04/26 01:15:27;;;;;;;;;156.75;133.75;;;;;7.72;63.91;101391.06;4877498;29;8898;-74
2021/04/26 01:18:31;;;;;;;;;108.25;97.50;;;;;7.71;63.38;101395.75;4877910;29;8965;-74
2021/04/26 01:21:56;;;;;;;;;111.00;98.33;;;;;7.73;63.10;101385.25;4877632;29;8894;-74
2021/04/26 01:25:04;;;;;;;;;0.00;0.00;;;;;7.64;63.77;101378.75;4877486;29;8844;-73
2021/04/26 01:28:17;;;;;;;;;117.33;90.67;;;;;7.56;63.53;101382.16;4877996;29;8955;-73
2021/04/26 01:31:20;;;;;;;;;128.25;112.00;;;;;7.56;63.25;101379.41;4876589;29;8852;-73
2021/04/26 01:34:16;;;;;;;;;154.00;119.75;;;;;7.58;63.86;101373.59;4876103;29;8859;-73
2021/04/26 01:37:14;;;;;;;;;145.25;125.75;;;;;7.56;63.44;101373.91;4877741;29;8866;-73
2021/04/26 01:40:13;;;;;;;;;137.50;91.75;;;;;7.41;63.90;101369.41;4877572;29;8860;-73
2021/04/26 01:43:10;;;;;;;;;237.00;181.00;;;;;7.41;63.78;101366.66;4877522;29;8847;-73
2021/04/26 01:46:10;;;;;;;;;206.25;171.75;;;;;7.43;63.95;101369.09;4871700;29;8868;-73
2021/04/26 01:49:07;;;;;;;;;203.75;161.75;;;;;7.32;64.06;101354.66;4868666;29;8878;-73
2021/04/26 01:51:40;;;;;;;;;210.00;168.50;;;;;7.21;64.26;101369.66;4878083;29;8843;-73
2021/04/26 01:54:37;;;;;;;;;178.25;146.50;;;;;7.27;64.73;101367.63;4894487;29;9716;-73
2021/04/26 01:57:34;;;;;;;;;150.50;131.00;;;;;7.17;64.71;101361.13;4888978;29;8858;-73
2021/04/26 02:00:13;;;;;;;;;163.00;129.50;;;;;7.30;64.21;101361.56;4877455;29;8864;-74
2021/04/26 02:03:10;;;;;;;;;152.50;126.50;;;;;7.10;65.03;101357.09;4895964;29;9582;-73
2021/04/26 02:06:06;;;;;;;;;130.50;113.25;;;;;7.10;65.13;101360.66;4896324;29;9630;-74
2021/04/26 02:09:04;;;;;;;;;160.00;136.75;;;;;7.12;64.83;101349.38;4883078;29;8931;-73
2021/04/26 02:12:00;;;;;;;;;148.50;123.50;;;;;7.08;65.28;101348.31;4896058;29;8839;-73
2021/04/26 02:14:56;;;;;;;;;154.50;126.75;;;;;6.93;65.71;101358.38;4880064;29;8835;-74
2021/04/26 02:17:52;;;;;;;;;147.00;125.50;;;;;6.77;66.39;101358.81;4880610;29;8946;-73
2021/04/26 02:20:47;;;;;;;;;143.50;122.75;;;;;6.70;67.12;101367.38;4896110;29;8862;-73
2021/04/26 02:23:43;;;;;;;;;161.75;132.25;;;;;6.50;67.29;101360.13;4879868;29;9600;-73
2021/04/26 02:26:39;;;;;;;;;153.25;131.25;;;;;6.50;67.14;101362.03;4894515;29;9614;-74
2021/04/26 02:29:36;;;;;;;;;112.25;93.00;;;;;6.73;66.43;101354.97;4895956;29;8843;-74
2021/04/26 02:33:03;;;;;;;;;104.67;91.00;;;;;6.80;66.03;101361.78;4877644;29;8860;-74
2021/04/26 02:36:07;;;;;;;;;98.00;81.00;;;;;6.92;65.49;101364.97;4898563;29;8879;-74
2021/04/26 02:39:06;;;;;;;;;104.00;93.00;;;;;6.74;66.01;101360.19;4881338;29;8850;-74
2021/04/26 02:42:04;;;;;;;;;117.25;101.75;;;;;6.73;66.95;101357.72;4880849;29;8839;-75
2021/04/26 02:45:01;;;;;;;;;134.75;118.25;;;;;6.72;67.07;101348.66;4888616;29;8915;-74
2021/04/26 02:47:57;;;;;;;;;166.25;136.00;;;;;6.74;67.20;101353.88;4893243;29;8877;-74
2021/04/26 02:50:55;;;;;;;;;159.75;132.75;;;;;6.81;66.83;101351.59;4886880;29;8850;-74
2021/04/26 02:53:53;;;;;;;;;219.25;182.50;;;;;6.81;66.67;101351.59;4895922;29;8933;-74
2021/04/26 02:56:51;;;;;;;;;204.00;176.50;;;;;6.80;66.43;101347.22;4876771;29;8998;-74
2021/04/26 02:59:48;;;;;;;;;196.50;164.00;;;;;6.74;67.07;101334.63;4890610;29;9012;-74
2021/04/26 03:02:44;;;;;;;;;158.75;133.00;;;;;6.89;66.89;101342.72;4876629;29;9168;-74
2021/04/26 03:05:42;;;;;;;;;133.25;124.00;;;;;6.99;66.74;101339.88;4881283;29;8864;-74
2021/04/26 03:08:39;;;;;;;;;108.67;101.00;;;;;7.25;66.30;101343.16;4882205;29;8858;-74
2021/04/26 03:11:35;;;;;;;;;111.50;101.50;;;;;7.24;66.19;101341.53;4881134;29;8854;-74
2021/04/26 03:14:32;;;;;;;;;131.50;111.75;;;;;7.12;66.08;101341.94;4883778;29;8899;-74
2021/04/26 03:17:28;;;;;;;;;138.50;122.00;;;;;7.28;66.27;101333.50;4888514;29;8969;-74
2021/04/26 03:20:25;;;;;;;;;152.25;126.75;;;;;7.18;66.20;101332.50;4868494;29;8851;-74
2021/04/26 03:23:23;;;;;;;;;146.00;128.00;;;;;7.20;66.13;101329.47;4885932;29;8869;-74
2021/04/26 03:26:19;;;;;;;;;127.50;117.25;;;;;7.28;66.03;101326.06;4898641;29;8861;-74
2021/04/26 03:29:21;;;;;;;;;107.00;96.33;;;;;7.41;65.85;101333.63;4892295;29;8900;-74
2021/04/26 03:32:17;;;;;;;;;99.33;89.67;;;;;7.58;65.28;101329.56;4897114;29;8936;-74
2021/04/26 03:35:15;;;;;;;;;99.33;80.67;;;;;7.57;64.92;101334.25;4898282;29;8830;-74
2021/04/26 03:38:12;;;;;;;;;97.33;76.33;;;;;7.47;65.24;101323.38;4882952;29;8859;-74
2021/04/26 03:41:08;;;;;;;;;91.67;74.67;;;;;7.41;65.58;101330.88;4883628;29;8861;-74
2021/04/26 03:44:05;;;;;;;;;80.67;60.33;;;;;7.49;64.99;101321.97;4879111;29;8912;-74
2021/04/26 03:47:04;;;;;;;;;94.67;78.67;;;;;7.63;64.88;101324.00;4890101;29;9061;-73
2021/04/26 03:49:59;;;;;;;;;90.33;68.00;;;;;7.71;65.15;101323.34;4893556;29;8846;-73
2021/04/26 03:52:28;;;;;;;;;83.33;65.33;;;;;7.83;65.29;101317.41;4884620;29;9627;-74
2021/04/26 03:55:24;;;;;;;;;78.00;62.67;;;;;7.92;64.82;101324.69;4882119;29;8859;-74
2021/04/26 03:58:20;;;;;;;;;92.33;76.33;;;;;7.98;63.96;101320.75;4880887;29;8854;-73
2021/04/26 04:01:17;;;;;;;;;110.00;96.33;;;;;8.09;63.67;101321.41;4888051;29;8957;-74
2021/04/26 04:03:44;;;;;;;;;113.67;91.00;;;;;8.03;63.90;101326.16;4867770;29;8883;-73
2021/04/26 04:06:12;;;;;;;;;131.00;104.00;;;;;8.10;63.57;101320.28;4874256;29;8861;-73
2021/04/26 04:09:08;;;;;;;;;101.00;85.33;;;;;8.32;63.05;101319.66;4875719;29;8870;-74
2021/04/26 04:12:04;;;;;;;;;115.00;98.00;;;;;8.39;63.13;101317.38;4882789;29;8854;-71
2021/04/26 04:15:00;;;;;;;;;109.00;90.33;;;;;8.70;63.00;101314.91;4889599;29;8863;-71
2021/04/26 04:17:48;;;;;;;;;98.00;77.00;;;;;9.03;61.82;101320.38;4891409;29;8873;-71
2021/04/26 04:20:16;;;;;;;;;94.67;76.00;;;;;9.23;61.29;101322.75;4881477;29;8984;-71
2021/04/26 04:23:14;;;;;;;;;90.33;71.00;;;;;9.37;61.00;101322.75;4882782;29;8920;-72
2021/04/26 04:26:10;;;;;;;;;93.00;72.33;;;;;9.60;60.53;101318.13;4868052;29;11721;-72
2021/04/26 04:29:06;;;;;;;;;77.50;62.25;;;;;9.79;59.54;101307.75;4882774;29;11747;-72
2021/04/26 04:32:02;;;;;;;;;84.67;68.00;;;;;10.02;59.24;101309.44;4892723;29;11611;-70
2021/04/26 04:34:58;;;;;;;;;78.25;61.50;;;;;10.28;58.55;101306.09;4875326;29;11645;-70
2021/04/26 04:37:53;;;;;;;;;89.75;65.50;;;;;10.52;57.90;101306.59;4890866;29;11614;-71
2021/04/26 04:40:49;;;;;;;;;81.00;62.75;;;;;10.80;56.78;101300.88;4896828;29;11669;-71
2021/04/26 04:43:45;;;;;;;;;85.25;60.50;;;;;11.10;56.16;101302.81;4896965;29;11615;-73
2021/04/26 04:46:12;;;;;;;;;82.00;59.25;;;;;11.32;55.91;101303.88;4896153;29;11663;-70
2021/04/26 04:49:08;;;;;;;;;78.50;61.75;;;;;11.33;54.51;101299.97;4878312;29;11644;-72
2021/04/26 04:51:50;;;;;;;;;79.75;57.75;;;;;11.55;54.16;101297.09;4863836;29;11639;-72
2021/04/26 04:54:18;;;;;;;;;73.00;54.50;;;;;11.70;54.11;101293.88;4879526;29;11667;-72
2021/04/26 04:57:13;;;;;;;;;66.00;52.50;;;;;11.85;53.05;101298.16;4885633;29;11604;-71
2021/04/26 05:00:10;;;;;;;;;59.00;48.75;;;;;11.87;52.24;101295.06;4878898;29;11619;-71
2021/04/26 05:02:57;;;;;;;;;69.75;55.75;;;;;11.89;52.42;101293.59;4888091;29;11646;-71
2021/04/26 05:05:53;;;;;;;;;67.25;50.50;;;;;12.20;51.39;101289.84;4886373;29;11750;-70
2021/04/26 05:08:20;;;;;;;;;62.25;49.00;;;;;12.32;51.83;101283.63;4895594;29;11615;-72
2021/04/26 05:10:48;;;;;;;;;51.00;43.00;;;;;12.53;51.24;101285.41;4908144;29;11691;-71
2021/04/26 05:13:44;;;;;;;;;53.75;45.00;;;;;12.56;51.96;101280.31;4888959;29;11601;-71
2021/04/26 05:16:42;;;;;;;;;54.75;45.00;;;;;12.75;50.69;101287.16;4894694;29;11563;-71
2021/04/26 05:19:11;;;;;;;;;48.25;41.25;;;;;12.87;50.75;101286.44;4893429;29;11708;-71
2021/04/26 05:21:54;;;;;;;;;51.75;44.00;;;;;13.05;50.28;101284.44;4858991;29;11560;-71
2021/04/26 05:24:39;;;;;;;;;51.00;43.50;;;;;13.28;50.07;101287.78;4881819;29;12365;-72
2021/04/26 05:27:07;;;;;;;;;37.75;34.25;;;;;13.40;50.09;101278.72;4864731;29;11624;-71
2021/04/26 05:29:37;;;;;;;;;49.25;41.25;;;;;13.55;49.54;101276.16;4865309;29;11404;-72
2021/04/26 05:32:05;;;;;;;;;41.75;38.50;;;;;13.65;49.59;101283.31;4880016;29;11624;-70
2021/04/26 05:34:33;;;;;;;;;38.75;36.00;;;;;13.75;48.82;101280.13;4895592;29;11702;-71
2021/04/26 05:37:29;;;;;;;;;36.25;35.25;;;;;13.98;49.27;101280.63;4883287;29;11889;-72
2021/04/26 05:40:25;;;;;;;;;35.75;34.50;;;;;14.23;48.02;101277.94;4878982;29;10991;-72
2021/04/26 05:43:20;;;;;;;;;37.25;35.00;;;;;14.57;47.97;101271.25;4883559;29;11119;-71
2021/04/26 05:45:54;;;;;;;;;27.50;26.25;;;;;14.80;47.74;101274.44;4865333;29;11654;-71
2021/04/26 05:48:29;;;;;;;;;28.75;24.50;;;;;15.10;46.87;101270.28;4879885;29;10628;-72
2021/04/26 05:51:25;;;;;;;;;42.50;30.25;;;;;15.20;46.26;101271.81;4878445;29;10231;-71
2021/04/26 05:54:21;;;;;;;;;23.75;23.25;;;;;15.34;46.57;101266.72;4872362;29;10420;-72
2021/04/26 05:56:48;;;;;;;;;23.25;23.25;;;;;15.42;44.34;101262.19;4860209;29;10263;-71
2021/04/26 05:59:16;;;;;;;;;22.75;20.25;;;;;15.44;44.19;101269.03;4860266;29;10105;-72
2021/04/26 06:02:11;;;;;;;;;21.25;21.25;;;;;15.66;44.34;101261.34;4861083;29;9667;-72
2021/04/26 06:05:08;;;;;;;;;21.25;21.25;;;;;15.86;43.23;101252.00;4859224;29;10741;-73
2021/04/26 06:08:04;;;;;;;;;16.00;16.00;;;;;15.89;41.06;101253.28;4866016;29;9913;-72
2021/04/26 06:11:00;;;;;;;;;22.25;22.25;;;;;15.83;41.11;101250.72;4863686;29;9569;-72
2021/04/26 06:13:28;;;;;;;;;19.00;19.00;;;;;15.93;41.81;101243.03;4872086;29;9802;-73
2021/04/26 06:15:56;;;;;;;;;15.33;15.33;;;;;16.08;41.45;101251.44;4874068;29;9348;-72
2021/04/26 06:18:52;;;;;;;;;13.00;13.00;;;;;16.26;38.76;101245.59;4862600;29;9580;-73
2021/04/26 06:21:47;;;;;;;;;12.00;10.33;;;;;16.38;36.82;101239.94;4858151;29;9372;-72
2021/04/26 06:24:43;;;;;;;;;11.33;11.33;;;;;16.41;34.87;101250.41;4873265;29;8942;-72
2021/04/26 06:27:40;;;;;;;;;8.33;8.33;;;;;16.54;33.22;101239.97;4869703;29;9158;-73
2021/04/26 06:30:38;;;;;;;;;6.00;6.00;;;;;16.59;31.78;101243.31;4851530;29;9252;-73
2021/04/26 06:33:33;;;;;;;;;6.00;6.00;;;;;16.47;32.17;101242.56;4851942;29;8939;-72
2021/04/26 06:36:29;;;;;;;;;6.00;6.00;;;;;16.72;30.71;101235.69;4857247;29;8935;-73
2021/04/26 06:39:00;;;;;;;;;9.00;9.00;;;;;16.71;30.62;101236.03;4856474;29;8955;-72
2021/04/26 06:41:57;;;;;;;;;2.33;2.33;;;;;16.71;30.20;101236.03;4868947;29;8972;-73
2021/04/26 06:44:27;;;;;;;;;6.67;6.67;;;;;16.89;29.70;101235.34;4875595;29;8951;-72
2021/04/26 06:47:23;;;;;;;;;6.00;6.00;;;;;16.92;29.69;101225.41;4854000;29;9051;-72
2021/04/26 06:49:59;;;;;;;;;1.00;1.00;;;;;17.10;30.54;101231.44;4873945;29;8856;-73
2021/04/26 06:52:56;;;;;;;;;7.25;6.75;;;;;17.48;30.03;101230.75;4868377;29;8942;-72
2021/04/26 06:55:51;;;;;;;;;6.25;6.25;;;;;17.05;32.29;101231.72;4866494;29;8878;-71
2021/04/26 06:58:47;;;;;;;;;9.00;9.00;;;;;17.41;32.75;101231.41;4867866;29;8868;-72
2021/04/26 07:01:42;;;;;;;;;4.75;4.75;;;;;16.74;32.47;101230.56;4864166;29;8911;-66
2021/04/26 07:04:38;;;;;;;;;8.00;8.00;;;;;17.14;33.33;101223.97;4864808;29;9570;-67
2021/04/26 07:07:34;;;;;;;;;10.75;10.00;;;;;17.48;32.84;101222.34;4872567;29;8834;-72
2021/04/26 07:10:04;;;;;;;;;7.25;7.25;;;;;17.69;33.31;101217.22;4874054;29;9574;-71
2021/04/26 07:12:32;;;;;;;;;5.00;5.00;;;;;17.81;32.88;101224.72;4858150;29;8860;-72
2021/04/26 07:15:21;;;;;;;;;8.00;8.00;;;;;17.95;31.32;101225.03;4869958;29;8877;-71
2021/04/26 07:18:17;;;;;;;;;7.75;7.75;;;;;17.96;30.00;101226.66;4870811;29;8884;-71
2021/04/26 07:21:13;;;;;;;;;8.00;8.00;;;;;18.19;30.43;101223.09;4875072;29;8844;-72
2021/04/26 07:24:09;;;;;;;;;4.00;4.00;;;;;18.11;30.54;101221.34;4875042;29;8855;-72
2021/04/26 07:27:05;;;;;;;;;6.75;6.75;;;;;17.76;30.36;101211.81;4871032;29;8850;-70
2021/04/26 07:30:02;;;;;;;;;6.00;6.00;;;;;18.30;30.64;101199.72;4858572;29;9616;-72
2021/04/26 07:32:58;;;;;;;;;7.25;7.25;;;;;18.50;29.55;101208.09;4861928;29;8862;-71
2021/04/26 07:35:25;;;;;;;;;6.00;6.00;;;;;18.59;29.10;101203.84;4877137;29;8967;-72
2021/04/26 07:37:54;;;;;;;;;9.00;8.50;;;;;18.66;29.70;101208.81;4874338;29;8966;-73
2021/04/26 07:40:50;;;;;;;;;6.00;6.00;;;;;18.77;29.63;101197.78;4874184;29;8867;-72
2021/04/26 07:43:45;;;;;;;;;6.00;6.00;;;;;18.67;28.11;101199.22;4874198;29;9611;-72
2021/04/26 07:46:13;;;;;;;;;5.00;5.00;;;;;17.76;27.93;101200.63;4881665;29;8879;-71
2021/04/26 07:49:09;;;;;;;;;7.00;7.00;;;;;18.25;28.44;101208.44;4878367;29;9645;-72
2021/04/26 07:52:05;;;;;;;;;5.50;5.50;;;;;18.48;27.51;101194.47;4884680;29;8833;-73
2021/04/26 07:54:55;;;;;;;;;2.00;2.00;;;;;18.47;27.54;101209.63;4889318;29;8840;-72
2021/04/26 07:57:51;;;;;;;;;4.00;4.00;;;;;17.82;27.52;101203.16;4880711;29;8847;-72
2021/04/26 08:00:46;;;;;;;;;6.25;6.25;;;;;18.03;27.70;101200.78;4896884;29;9000;-72
2021/04/26 08:03:42;;;;;;;;;4.50;4.50;;;;;17.41;29.70;101209.03;4875724;29;8863;-72
2021/04/26 08:06:39;;;;;;;;;4.25;4.25;;;;;17.15;27.21;101198.44;4885140;29;8865;-71
2021/04/26 08:09:09;;;;;;;;;5.00;5.00;;;;;17.17;29.88;101200.88;4888556;29;8860;-72
2021/04/26 08:11:48;;;;;;;;;5.75;5.75;;;;;17.32;28.37;101194.44;4879609;29;8864;-71
2021/04/26 08:14:17;;;;;;;;;4.75;4.75;;;;;16.68;29.15;101187.28;4875252;29;8890;-71
2021/04/26 08:17:00;;;;;;;;;6.75;6.00;;;;;16.83;29.01;101188.47;4903429;29;8938;-71
2021/04/26 08:19:55;;;;;;;;;5.50;5.50;;;;;17.27;30.81;101191.94;4885428;29;8841;-71
2021/04/26 08:22:37;;;;;;;;;6.25;6.25;;;;;17.84;28.57;101192.41;4901310;29;8873;-71
2021/04/26 08:25:07;;;;;;;;;4.00;4.00;;;;;17.90;28.06;101188.94;4883568;29;8974;-70
2021/04/26 08:27:35;;;;;;;;;7.00;7.00;;;;;18.19;28.48;101184.72;4889595;29;8886;-70
2021/04/26 08:30:17;;;;;;;;;5.00;5.00;;;;;18.60;28.30;101180.25;4905408;29;9220;-70
2021/04/26 08:33:12;;;;;;;;;11.75;11.75;;;;;18.87;26.19;101166.34;4898681;29;8857;-71
2021/04/26 08:36:09;;;;;;;;;7.50;7.50;;;;;19.21;29.86;101158.03;4885324;29;8863;-72
2021/04/26 08:39:05;;;;;;;;;7.25;7.25;;;;;18.67;26.60;101165.59;4896204;29;8965;-72
2021/04/26 08:42:00;;;;;;;;;6.50;6.50;;;;;18.17;25.69;101164.69;4891830;29;8865;-71
2021/04/26 08:44:46;;;;;;;;;6.25;6.00;;;;;18.33;26.19;101168.19;4889282;29;8872;-70
2021/04/26 08:47:42;;;;;;;;;7.50;7.50;;;;;18.67;26.29;101153.59;4888097;29;8858;-70
2021/04/26 08:50:10;;;;;;;;;7.00;7.00;;;;;18.66;27.59;101149.16;4879231;29;8868;-71
2021/04/26 08:52:53;;;;;;;;;5.25;5.00;;;;;18.81;28.49;101156.63;4893795;29;9087;-72
2021/04/26 08:55:49;;;;;;;;;7.50;7.50;;;;;18.75;26.08;101160.91;4891929;29;8835;-72
2021/04/26 08:58:16;;;;;;;;;7.50;7.00;;;;;18.73;26.28;101163.31;4893665;29;8865;-71
2021/04/26 09:01:12;;;;;;;;;5.75;5.25;;;;;18.23;27.64;101163.19;4895745;29;8885;-70
2021/04/26 09:04:11;;;;;;;;;5.00;5.00;;;;;18.26;28.31;101153.25;4883957;29;8866;-72
2021/04/26 09:07:12;;;;;;;;;4.50;4.50;;;;;18.09;26.85;101157.31;4892473;29;8873;-71
2021/04/26 09:10:09;;;;;;;;;6.00;6.00;;;;;18.42;27.52;101158.72;4881134;29;8836;-71
2021/04/26 09:12:40;;;;;;;;;6.00;6.00;;;;;17.50;27.74;101162.09;4897569;29;8847;-72
2021/04/26 09:15:16;;;;;;;;;5.75;5.75;;;;;18.09;27.27;101151.72;4896711;29;8853;-72
2021/04/26 09:18:12;;;;;;;;;3.00;3.00;;;;;18.63;26.88;101150.69;4896789;29;8862;-70
2021/04/26 09:21:12;;;;;;;;;5.25;5.25;;;;;19.08;25.55;101141.41;4897456;29;8896;-70
2021/04/26 09:24:28;;;;;;;;;5.25;5.25;;;;;19.66;25.57;101137.44;4896829;29;8891;-71
2021/04/26 09:27:23;;;;;;;;;7.25;7.00;;;;;19.62;25.57;101137.38;4877972;29;8938;-72
2021/04/26 09:30:35;;;;;;;;;5.25;5.00;;;;;19.25;24.82;101139.28;4877922;29;9002;-71
2021/04/26 09:33:38;;;;;;;;;5.00;5.00;;;;;18.56;25.74;101130.97;4877997;29;8950;-72
2021/04/26 09:36:33;;;;;;;;;6.25;6.25;;;;;18.27;25.71;101135.28;4880151;29;8888;-71
2021/04/26 09:39:29;;;;;;;;;5.75;5.75;;;;;18.37;26.25;101137.44;4883984;29;8839;-71
2021/04/26 09:42:46;;;;;;;;;5.50;5.50;;;;;18.22;26.72;101122.38;4896702;29;8858;-71
2021/04/26 09:45:45;;;;;;;;;4.00;4.00;;;;;17.82;26.83;101128.41;4898655;29;8873;-70
2021/04/26 09:48:41;;;;;;;;;7.00;7.00;;;;;17.84;27.15;101122.44;4887794;29;8904;-72
2021/04/26 09:51:36;;;;;;;;;8.25;7.50;;;;;17.69;27.62;101129.72;4900234;29;9616;-71
2021/04/26 09:54:04;;;;;;;;;7.50;7.50;;;;;17.41;27.39;101121.56;4901079;29;8904;-70
2021/04/26 09:57:01;;;;;;;;;6.25;6.25;;;;;16.96;28.82;101122.94;4900302;29;8845;-70
2021/04/26 09:59:58;;;;;;;;;8.50;8.50;;;;;16.90;29.00;101114.03;4900428;29;8877;-71
2021/04/26 10:02:54;;;;;;;;;3.00;3.00;;;;;16.79;30.38;101112.16;4892349;29;8881;-71
2021/04/26 10:05:50;;;;;;;;;6.00;6.00;;;;;17.05;29.71;101104.00;4899311;29;8933;-73
2021/04/26 10:08:49;;;;;;;;;7.00;7.00;;;;;17.16;29.53;101110.63;4895188;29;9603;-71
2021/04/26 10:11:36;;;;;;;;;9.33;8.33;;;;;17.12;29.24;101111.75;4882006;29;8868;-71
2021/04/26 10:14:32;;;;;;;;;5.50;5.50;;;;;16.87;29.62;101113.97;4899106;29;8965;-72
2021/04/26 10:17:28;;;;;;;;;6.50;6.50;;;;;17.02;30.28;101106.69;4899978;29;8866;-72
2021/04/26 10:19:57;;;;;;;;;6.67;6.67;;;;;16.99;31.59;101113.03;4900757;29;8866;-72
2021/04/26 10:22:41;;;;;;;;;5.00;5.00;;;;;16.67;31.80;101113.06;4900702;29;8975;-71
2021/04/26 10:25:39;;;;;;;;;5.50;5.50;;;;;16.55;31.93;101108.38;4891600;29;8879;-72
2021/04/26 10:28:37;;;;;;;;;7.33;7.33;;;;;16.59;33.59;101109.28;4881519;29;8962;-71
2021/04/26 10:32:00;;;;;;;;;6.00;6.00;;;;;16.65;32.71;101107.03;4890760;29;8949;-72
2021/04/26 10:34:42;;;;;;;;;6.00;6.00;;;;;16.50;32.93;101108.66;4900567;29;8844;-71
2021/04/26 10:37:14;;;;;;;;;7.00;7.00;;;;;16.29;32.98;101106.13;4883843;29;9039;-71
2021/04/26 10:39:59;;;;;;;;;7.33;7.33;;;;;16.43;34.06;101104.88;4899584;29;8960;-73
2021/04/26 10:42:54;;;;;;;;;7.00;7.00;;;;;16.54;36.92;101111.53;4885161;29;9100;-72
2021/04/26 10:46:15;;;;;;;;;8.33;7.00;;;;;16.52;38.21;101097.13;4896250;29;9928;-71
2021/04/26 10:49:03;;;;;;;;;17.33;9.00;;;;;16.35;39.54;101110.28;4869418;29;9096;-71
2021/04/26 10:52:28;;;;;;;;;8.67;8.67;;;;;16.20;39.53;101104.69;4887078;29;9189;-71
2021/04/26 10:55:23;;;;;;;;;8.00;8.00;;;;;16.36;39.53;101113.88;4883511;29;9080;-71
2021/04/26 10:58:24;;;;;;;;;9.33;9.33;;;;;16.44;40.40;101110.09;4887976;29;9185;-72
2021/04/26 11:00:54;;;;;;;;;8.00;8.00;;;;;16.19;39.67;101111.44;4873562;29;9131;-70
2021/04/26 11:03:49;;;;;;;;;9.67;9.00;;;;;16.61;39.87;101120.06;4882197;29;9115;-71
2021/04/26 11:07:19;;;;;;;;;7.00;7.00;;;;;16.47;38.59;101117.72;4876916;29;9129;-73
2021/04/26 11:09:47;;;;;;;;;7.00;7.00;;;;;16.22;38.31;101122.69;4879966;29;8949;-71
2021/04/26 11:12:33;;;;;;;;;10.67;10.67;;;;;16.71;38.51;101127.94;4879158;29;9071;-71
2021/04/26 11:15:29;;;;;;;;;4.67;4.67;;;;;16.07;37.08;101115.91;4873657;29;9089;-69
2021/04/26 11:18:14;;;;;;;;;6.00;4.33;;;;;16.16;37.19;101112.16;4886262;29;8961;-71
2021/04/26 11:21:12;;;;;;;;;4.33;4.33;;;;;16.20;37.83;101116.66;4877857;29;9202;-71
2021/04/26 11:24:19;;;;;;;;;5.00;5.00;;;;;16.19;37.45;101112.25;4890547;29;9167;-71
2021/04/26 11:27:08;;;;;;;;;5.33;5.00;;;;;15.89;38.61;101127.78;4887248;29;9150;-72
2021/04/26 11:30:04;;;;;;;;;0.00;0.00;;;;;15.69;39.06;101113.66;4885346;29;8939;-73
2021/04/26 11:33:00;;;;;;;;;6.00;6.00;;;;;15.63;39.01;101134.59;4871251;29;8931;-72
2021/04/26 11:36:15;;;;;;;;;4.00;4.00;;;;;15.57;40.06;101136.00;4885685;29;9283;-71
2021/04/26 11:38:48;;;;;;;;;5.00;5.00;;;;;15.53;41.94;101124.75;4878995;29;9213;-71
2021/04/26 11:41:17;;;;;;;;;7.67;7.67;;;;;15.46;41.98;101130.09;4876832;29;9106;-72
2021/04/26 11:43:54;;;;;;;;;10.00;8.00;;;;;15.58;42.65;101129.25;4881136;29;9337;-71
2021/04/26 11:46:49;;;;;;;;;11.33;10.00;;;;;15.45;43.94;101134.06;4879392;29;10016;-71
2021/04/26 11:49:50;;;;;;;;;13.50;11.00;;;;;15.61;44.37;101127.72;4884303;29;9356;-71
2021/04/26 11:52:46;;;;;;;;;6.00;6.00;;;;;15.16;43.41;101126.81;4885563;29;9592;-70
2021/04/26 11:55:17;;;;;;;;;5.00;5.00;;;;;15.33;43.80;101131.28;4883549;29;9453;-72
2021/04/26 11:58:00;;;;;;;;;7.00;6.75;;;;;15.42;42.87;101134.78;4886049;29;9439;-71
2021/04/26 12:01:10;;;;;;;;;8.33;6.67;;;;;15.07;43.19;101134.50;4875506;29;9775;-71
2021/04/26 12:04:05;;;;;;;;;8.33;8.33;;;;;15.07;43.39;101126.13;4884505;29;9410;-71
2021/04/26 12:07:12;;;;;;;;;6.50;6.50;;;;;15.09;43.55;101134.94;4886860;29;9483;-73
2021/04/26 12:09:40;;;;;;;;;11.00;7.75;;;;;14.84;44.00;101120.25;4881436;29;9573;-72
2021/04/26 12:12:10;;;;;;;;;6.00;6.00;;;;;14.45;45.09;101138.44;4894424;29;9416;-71
2021/04/26 12:14:44;;;;;;;;;7.00;7.00;;;;;14.36;46.73;101134.94;4894687;29;9568;-72
2021/04/26 12:17:15;;;;;;;;;7.50;7.50;;;;;14.53;47.10;101125.59;4883415;29;9756;-72
2021/04/26 12:20:17;;;;;;;;;6.75;6.75;;;;;14.28;49.79;101127.50;4885963;29;9753;-73
2021/04/26 12:23:19;;;;;;;;;9.00;9.00;;;;;14.14;53.30;101120.28;4890924;29;9933;-71
2021/04/26 12:26:18;;;;;;;;;8.00;8.00;;;;;13.74;53.44;101116.47;4885626;29;10158;-71
2021/04/26 12:29:03;;;;;;;;;7.00;7.00;;;;;13.98;53.03;101111.00;4877177;29;9989;-71
2021/04/26 12:31:48;;;;;;;;;6.50;6.50;;;;;13.71;53.08;101111.59;4882769;29;9962;-70
2021/04/26 12:34:19;;;;;;;;;5.50;5.50;;;;;13.58;52.36;101094.06;4883282;29;9750;-71
2021/04/26 12:37:15;;;;;;;;;8.25;8.25;;;;;13.53;53.13;101089.53;4886211;29;9821;-71
2021/04/26 12:40:18;;;;;;;;;4.25;4.25;;;;;13.18;53.29;101097.28;4882552;29;10058;-71
2021/04/26 12:43:14;;;;;;;;;6.00;6.00;;;;;13.69;52.21;101091.66;4882190;29;10058;-72
2021/04/26 12:46:14;;;;;;;;;8.00;8.00;;;;;13.73;51.70;101096.22;4858689;29;9936;-71
2021/04/26 12:48:42;;;;;;;;;4.25;4.25;;;;;13.95;51.58;101085.81;4872127;29;10301;-72
2021/04/26 12:51:12;;;;;;;;;10.00;10.00;;;;;13.87;50.09;101074.44;4864896;29;10089;-72
2021/04/26 12:53:47;;;;;;;;;5.25;5.25;;;;;13.70;49.64;101076.59;4879668;29;10125;-72
2021/04/26 12:56:18;;;;;;;;;7.50;7.50;;;;;13.57;50.02;101078.53;4862745;29;10059;-71
2021/04/26 12:59:14;;;;;;;;;5.50;5.50;;;;;13.47;49.29;101068.66;4862850;29;10137;-71
2021/04/26 13:02:09;;;;;;;;;8.75;8.75;;;;;14.03;49.01;101071.84;4879449;29;10174;-70
2021/04/26 13:04:41;;;;;;;;;3.00;3.00;;;;;13.79;48.63;101064.22;4872807;29;9976;-71
2021/04/26 13:07:09;;;;;;;;;7.50;5.50;;;;;14.36;46.87;101059.81;4867508;29;9923;-71
2021/04/26 13:10:09;;;;;;;;;0.00;0.00;;;;;15.34;44.90;101062.47;4867978;29;10085;-71
2021/04/26 13:12:37;;;;;;;;;5.00;5.00;;;;;15.58;44.16;101045.63;4853428;29;10579;-70
2021/04/26 13:15:26;;;;;;;;;7.00;6.00;;;;;15.95;43.09;101051.00;4869445;29;9419;-71